Malden, MA (02148)

10:18 AM EDT on October 23, 2014 (GMT -0400)
PAPA'S PLACE | Change Station
CLOSE
Current Station
Personal Weather Station
Location: MALDEN, MA
Elevation: 52 ft
Nearby Weather Stations

Elev 52 ft 42.44 °N, 71.05 °W | Updated 6 minutes ago

Rain
Rain
51.6 °F
Feels Like 51.6 °F
N
0.0
Wind Variable Wind from ENE

Today
High -- | Low -- °F
--% Chance of Precip.
Yesterday
High -- | Low -- °F
Precip. -- in
7:06 AM 5:49 PM
Waning Crescent, 0% visible
Pressure 29.62 in
Visibility 10.0 miles
Clouds Mostly Cloudy 1400 ft
Mostly Cloudy 2500 ft
Dew Point 51 °F
Humidity 98%
Rainfall 2.52 in
Snow Depth Not available.
UV 1 out of 12
Pollen .30 out of 12
Ozone Good
PM2.5 Good
Flu Activity No Activity
SPECI KBOS 231410Z 01022G32KT 10SM BKN014 BKN025 11/10 A2962 RMK AO2 PK WND 36035/1356

More Conditions Fewer Conditions

Pressure 29.62 in
Visibility 10.0 miles
Clouds Mostly Cloudy 1400 ft
Mostly Cloudy 2500 ft
Dew Point 51 °F
Humidity 98%
Rainfall 2.52 in
Snow Depth Not available.
UV 1 out of 12
Pollen .30 out of 12
Ozone Good
PM2.5 Good
Flu Activity No Activity
SPECI KBOS 231410Z 01022G32KT 10SM BKN014 BKN025 11/10 A2962 RMK AO2 PK WND 36035/1356

More Conditions Fewer Conditions

10-Day Weather Forecast

Almanac

Astronomy

Oct. 23, 2014 Rise Set
Actual Time 7:06 AM EDT 5:49 PM EDT
Civil Twilight 6:37 AM EDT 6:18 PM EDT
Nautical Twilight 6:05 AM EDT 6:51 PM EDT
Astronomical Twilight 5:32 AM EDT 7:23 PM EDT
Moon 6:42 AM EDT 5:49 PM EDT
Length of Visible Light 11h 40m
Length of Day
10h 43m
Tomorrow will be 2m 40s shorter.
Waning Crescent, 0% of the Moon is Illuminated
Today
Waning Crescent
Oct 23
New
Oct 30
First Quarter
Nov 6
Full
Nov 14
Last Quarter

Today's Extremes

State Highs State Lows

Community

WunderPhotos

Upload Photos

1,764,256 photos uploaded!

Nearby

Air Quality

  Air Quality AQ Index Pollutant
Yesterday Good
OZONE
Yesterday Good
PM2.5
Current Good
OZONE
Current Good
PM2.5
Thursday Good
PM2.5

Snow Depth

Station Depth Elevation
No new snow has been reported.

Earthquake Activity

City Distance Mag. Time & Date
No recent earthquake activity has been reported nearby.
Minimum magnitude displayed is 2.5.

Coastal Water Temperatures

Place Temperature
Boston, MA 55.9 °F
Providence, RI 61.0 °F
Fall River, MA 62.1 °F
Conimicut Light, RI 60.1 °F

Nearby Weather Stations